sensor_id;sensor_type;location;lat;lon;timestamp;P1;durP1;ratioP1;P2;durP2;ratioP2
11921;SDS011;6021;51.182;3.160;2022-10-20T00:01:42;21.17;;;18.97;;
11921;SDS011;6021;51.182;3.160;2022-10-20T00:04:11;23.87;;;19.13;;
11921;SDS011;6021;51.182;3.160;2022-10-20T00:06:40;27.03;;;20.43;;
11921;SDS011;6021;51.182;3.160;2022-10-20T00:09:08;23.03;;;19.03;;
11921;SDS011;6021;51.182;3.160;2022-10-20T00:11:36;24.73;;;19.73;;
11921;SDS011;6021;51.182;3.160;2022-10-20T00:14:05;25.27;;;19.60;;
11921;SDS011;6021;51.182;3.160;2022-10-20T00:16:36;25.87;;;20.27;;
11921;SDS011;6021;51.182;3.160;2022-10-20T00:19:05;27.17;;;20.83;;
11921;SDS011;6021;51.182;3.160;2022-10-20T00:21:33;27.60;;;21.23;;
11921;SDS011;6021;51.182;3.160;2022-10-20T00:27:38;25.07;;;20.80;;
11921;SDS011;6021;51.182;3.160;2022-10-20T00:30:07;24.80;;;20.77;;
11921;SDS011;6021;51.182;3.160;2022-10-20T00:32:36;24.77;;;20.97;;
11921;SDS011;6021;51.182;3.160;2022-10-20T00:35:04;24.10;;;21.20;;
11921;SDS011;6021;51.182;3.160;2022-10-20T00:37:34;27.20;;;20.63;;
11921;SDS011;6021;51.182;3.160;2022-10-20T00:40:06;26.10;;;21.60;;
11921;SDS011;6021;51.182;3.160;2022-10-20T00:42:35;26.77;;;20.90;;
11921;SDS011;6021;51.182;3.160;2022-10-20T00:45:11;27.10;;;17.80;;
11921;SDS011;6021;51.182;3.160;2022-10-20T00:47:42;24.23;;;20.13;;
11921;SDS011;6021;51.182;3.160;2022-10-20T00:50:14;25.63;;;20.77;;
11921;SDS011;6021;51.182;3.160;2022-10-20T00:52:50;24.93;;;20.40;;
11921;SDS011;6021;51.182;3.160;2022-10-20T00:57:57;23.77;;;20.50;;
11921;SDS011;6021;51.182;3.160;2022-10-20T01:00:26;25.97;;;19.93;;
11921;SDS011;6021;51.182;3.160;2022-10-20T01:02:57;23.83;;;20.53;;
11921;SDS011;6021;51.182;3.160;2022-10-20T01:05:27;25.37;;;20.20;;
11921;SDS011;6021;51.182;3.160;2022-10-20T01:07:56;24.17;;;20.17;;
11921;SDS011;6021;51.182;3.160;2022-10-20T01:10:24;24.73;;;19.97;;
11921;SDS011;6021;51.182;3.160;2022-10-20T01:13:02;28.60;;;20.07;;
11921;SDS011;6021;51.182;3.160;2022-10-20T01:29:55;24.00;;;18.33;;
11921;SDS011;6021;51.182;3.160;2022-10-20T01:32:37;21.87;;;17.83;;
11921;SDS011;6021;51.182;3.160;2022-10-20T01:37:53;22.13;;;18.63;;
11921;SDS011;6021;51.182;3.160;2022-10-20T01:43:14;25.47;;;18.37;;
11921;SDS011;6021;51.182;3.160;2022-10-20T01:45:46;18.80;;;16.60;;
11921;SDS011;6021;51.182;3.160;2022-10-20T01:48:19;26.43;;;17.67;;
11921;SDS011;6021;51.182;3.160;2022-10-20T01:50:48;23.17;;;18.37;;
11921;SDS011;6021;51.182;3.160;2022-10-20T01:53:19;21.13;;;17.97;;
11921;SDS011;6021;51.182;3.160;2022-10-20T01:55:50;23.07;;;18.20;;
11921;SDS011;6021;51.182;3.160;2022-10-20T01:58:30;23.87;;;17.87;;
11921;SDS011;6021;51.182;3.160;2022-10-20T02:01:01;20.00;;;17.07;;
11921;SDS011;6021;51.182;3.160;2022-10-20T02:14:26;24.47;;;19.03;;
11921;SDS011;6021;51.182;3.160;2022-10-20T02:17:04;23.70;;;18.80;;
11921;SDS011;6021;51.182;3.160;2022-10-20T02:19:33;23.13;;;19.10;;
11921;SDS011;6021;51.182;3.160;2022-10-20T02:22:02;23.73;;;19.27;;
11921;SDS011;6021;51.182;3.160;2022-10-20T02:24:33;22.90;;;19.53;;
11921;SDS011;6021;51.182;3.160;2022-10-20T02:27:13;23.73;;;18.93;;
11921;SDS011;6021;51.182;3.160;2022-10-20T02:32:14;23.07;;;19.13;;
11921;SDS011;6021;51.182;3.160;2022-10-20T02:34:43;24.03;;;19.37;;
11921;SDS011;6021;51.182;3.160;2022-10-20T02:37:13;24.50;;;19.37;;
11921;SDS011;6021;51.182;3.160;2022-10-20T02:39:42;25.77;;;19.37;;
11921;SDS011;6021;51.182;3.160;2022-10-20T02:42:10;25.20;;;20.83;;
11921;SDS011;6021;51.182;3.160;2022-10-20T02:44:39;23.90;;;19.93;;
11921;SDS011;6021;51.182;3.160;2022-10-20T02:47:07;24.20;;;19.80;;
11921;SDS011;6021;51.182;3.160;2022-10-20T02:49:37;26.27;;;20.47;;
11921;SDS011;6021;51.182;3.160;2022-10-20T02:52:06;25.40;;;20.97;;
11921;SDS011;6021;51.182;3.160;2022-10-20T03:02:14;26.67;;;19.60;;
11921;SDS011;6021;51.182;3.160;2022-10-20T03:04:43;22.57;;;19.50;;
11921;SDS011;6021;51.182;3.160;2022-10-20T03:07:13;25.23;;;19.33;;
11921;SDS011;6021;51.182;3.160;2022-10-20T03:09:41;25.00;;;19.80;;
11921;SDS011;6021;51.182;3.160;2022-10-20T03:12:10;26.37;;;20.33;;
11921;SDS011;6021;51.182;3.160;2022-10-20T03:17:12;24.73;;;19.80;;
11921;SDS011;6021;51.182;3.160;2022-10-20T03:19:41;24.57;;;20.25;;
11921;SDS011;6021;51.182;3.160;2022-10-20T03:22:10;26.90;;;20.50;;
11921;SDS011;6021;51.182;3.160;2022-10-20T03:24:39;29.03;;;20.73;;
11921;SDS011;6021;51.182;3.160;2022-10-20T03:27:07;26.43;;;20.87;;
11921;SDS011;6021;51.182;3.160;2022-10-20T03:29:36;24.33;;;20.47;;
11921;SDS011;6021;51.182;3.160;2022-10-20T03:32:04;25.10;;;20.33;;
11921;SDS011;6021;51.182;3.160;2022-10-20T03:34:33;25.57;;;21.20;;
11921;SDS011;6021;51.182;3.160;2022-10-20T03:37:03;28.03;;;21.13;;
11921;SDS011;6021;51.182;3.160;2022-10-20T03:39:31;28.33;;;21.40;;
11921;SDS011;6021;51.182;3.160;2022-10-20T03:41:59;25.17;;;20.70;;
11921;SDS011;6021;51.182;3.160;2022-10-20T03:44:28;25.37;;;21.00;;
11921;SDS011;6021;51.182;3.160;2022-10-20T03:46:56;25.13;;;20.27;;
11921;SDS011;6021;51.182;3.160;2022-10-20T03:49:25;25.63;;;20.97;;
11921;SDS011;6021;51.182;3.160;2022-10-20T03:51:56;26.63;;;21.00;;
11921;SDS011;6021;51.182;3.160;2022-10-20T03:54:24;24.00;;;21.23;;
11921;SDS011;6021;51.182;3.160;2022-10-20T03:56:52;26.13;;;21.37;;
11921;SDS011;6021;51.182;3.160;2022-10-20T03:59:21;25.73;;;20.83;;
11921;SDS011;6021;51.182;3.160;2022-10-20T04:01:49;26.60;;;21.07;;
11921;SDS011;6021;51.182;3.160;2022-10-20T04:04:18;26.20;;;21.50;;
11921;SDS011;6021;51.182;3.160;2022-10-20T04:06:47;26.73;;;21.20;;
11921;SDS011;6021;51.182;3.160;2022-10-20T04:09:15;27.37;;;21.13;;
11921;SDS011;6021;51.182;3.160;2022-10-20T04:11:43;27.27;;;20.90;;
11921;SDS011;6021;51.182;3.160;2022-10-20T04:14:12;24.73;;;19.83;;
11921;SDS011;6021;51.182;3.160;2022-10-20T04:16:42;29.50;;;20.27;;
11921;SDS011;6021;51.182;3.160;2022-10-20T04:19:11;28.13;;;20.87;;
11921;SDS011;6021;51.182;3.160;2022-10-20T04:21:41;27.13;;;20.90;;
11921;SDS011;6021;51.182;3.160;2022-10-20T04:24:09;29.73;;;21.37;;
11921;SDS011;6021;51.182;3.160;2022-10-20T04:26:39;31.47;;;21.33;;
11921;SDS011;6021;51.182;3.160;2022-10-20T04:29:07;24.83;;;20.27;;
11921;SDS011;6021;51.182;3.160;2022-10-20T04:34:07;28.43;;;21.90;;
11921;SDS011;6021;51.182;3.160;2022-10-20T04:36:37;26.43;;;21.57;;
11921;SDS011;6021;51.182;3.160;2022-10-20T04:39:05;30.13;;;23.53;;
11921;SDS011;6021;51.182;3.160;2022-10-20T04:41:34;28.07;;;22.30;;
11921;SDS011;6021;51.182;3.160;2022-10-20T04:44:03;27.33;;;21.93;;
11921;SDS011;6021;51.182;3.160;2022-10-20T04:46:31;26.83;;;22.33;;
11921;SDS011;6021;51.182;3.160;2022-10-20T04:49:00;29.60;;;21.87;;
11921;SDS011;6021;51.182;3.160;2022-10-20T04:53:59;27.47;;;22.53;;
11921;SDS011;6021;51.182;3.160;2022-10-20T04:56:29;28.23;;;21.70;;
11921;SDS011;6021;51.182;3.160;2022-10-20T05:01:33;29.13;;;22.10;;
11921;SDS011;6021;51.182;3.160;2022-10-20T05:04:02;27.07;;;22.03;;
11921;SDS011;6021;51.182;3.160;2022-10-20T05:06:32;26.83;;;21.67;;
11921;SDS011;6021;51.182;3.160;2022-10-20T05:09:01;25.87;;;20.73;;
11921;SDS011;6021;51.182;3.160;2022-10-20T05:11:33;24.23;;;20.40;;
11921;SDS011;6021;51.182;3.160;2022-10-20T05:14:03;29.30;;;21.63;;
11921;SDS011;6021;51.182;3.160;2022-10-20T05:16:31;26.67;;;21.07;;
11921;SDS011;6021;51.182;3.160;2022-10-20T05:19:00;27.93;;;21.27;;
11921;SDS011;6021;51.182;3.160;2022-10-20T05:21:31;26.63;;;20.30;;
11921;SDS011;6021;51.182;3.160;2022-10-20T05:24:03;24.17;;;20.90;;
11921;SDS011;6021;51.182;3.160;2022-10-20T05:26:33;27.43;;;21.10;;
11921;SDS011;6021;51.182;3.160;2022-10-20T05:29:03;24.57;;;20.60;;
11921;SDS011;6021;51.182;3.160;2022-10-20T05:31:37;26.83;;;20.80;;
11921;SDS011;6021;51.182;3.160;2022-10-20T05:34:08;24.63;;;20.30;;
11921;SDS011;6021;51.182;3.160;2022-10-20T05:36:37;25.03;;;20.53;;
11921;SDS011;6021;51.182;3.160;2022-10-20T05:39:06;25.13;;;20.03;;
11921;SDS011;6021;51.182;3.160;2022-10-20T05:41:34;23.83;;;20.13;;
11921;SDS011;6021;51.182;3.160;2022-10-20T05:44:03;28.63;;;19.50;;
11921;SDS011;6021;51.182;3.160;2022-10-20T05:46:34;27.13;;;20.90;;
11921;SDS011;6021;51.182;3.160;2022-10-20T05:49:15;26.27;;;19.90;;
11921;SDS011;6021;51.182;3.160;2022-10-20T05:51:42;25.70;;;19.97;;
11921;SDS011;6021;51.182;3.160;2022-10-20T05:54:12;24.13;;;19.53;;
11921;SDS011;6021;51.182;3.160;2022-10-20T05:56:41;24.63;;;20.50;;
11921;SDS011;6021;51.182;3.160;2022-10-20T05:59:10;24.53;;;20.50;;
11921;SDS011;6021;51.182;3.160;2022-10-20T06:01:40;25.40;;;20.63;;
11921;SDS011;6021;51.182;3.160;2022-10-20T06:06:45;25.97;;;20.13;;
11921;SDS011;6021;51.182;3.160;2022-10-20T06:09:14;25.27;;;19.73;;
11921;SDS011;6021;51.182;3.160;2022-10-20T06:11:43;23.40;;;19.87;;
11921;SDS011;6021;51.182;3.160;2022-10-20T06:14:12;23.27;;;19.40;;
11921;SDS011;6021;51.182;3.160;2022-10-20T06:16:40;24.70;;;18.87;;
11921;SDS011;6021;51.182;3.160;2022-10-20T06:19:09;22.53;;;18.73;;
11921;SDS011;6021;51.182;3.160;2022-10-20T06:21:39;20.30;;;17.80;;
11921;SDS011;6021;51.182;3.160;2022-10-20T06:24:08;21.17;;;18.47;;
11921;SDS011;6021;51.182;3.160;2022-10-20T06:26:37;21.83;;;19.03;;
11921;SDS011;6021;51.182;3.160;2022-10-20T06:29:08;20.87;;;18.60;;
11921;SDS011;6021;51.182;3.160;2022-10-20T06:31:40;19.60;;;17.50;;
11921;SDS011;6021;51.182;3.160;2022-10-20T06:34:10;21.73;;;17.80;;
11921;SDS011;6021;51.182;3.160;2022-10-20T06:36:45;22.00;;;18.13;;
11921;SDS011;6021;51.182;3.160;2022-10-20T06:39:15;20.07;;;16.90;;
11921;SDS011;6021;51.182;3.160;2022-10-20T06:41:45;19.10;;;17.13;;
11921;SDS011;6021;51.182;3.160;2022-10-20T06:44:16;20.37;;;17.60;;
11921;SDS011;6021;51.182;3.160;2022-10-20T06:46:45;20.57;;;17.30;;
11921;SDS011;6021;51.182;3.160;2022-10-20T06:49:14;17.23;;;13.20;;
11921;SDS011;6021;51.182;3.160;2022-10-20T06:51:42;18.73;;;12.80;;
11921;SDS011;6021;51.182;3.160;2022-10-20T06:54:11;17.53;;;15.00;;
11921;SDS011;6021;51.182;3.160;2022-10-20T06:56:50;16.03;;;12.80;;
11921;SDS011;6021;51.182;3.160;2022-10-20T06:59:23;17.87;;;13.20;;
11921;SDS011;6021;51.182;3.160;2022-10-20T07:01:51;20.20;;;14.03;;
11921;SDS011;6021;51.182;3.160;2022-10-20T07:04:19;15.50;;;12.10;;
11921;SDS011;6021;51.182;3.160;2022-10-20T07:06:48;18.00;;;13.57;;
11921;SDS011;6021;51.182;3.160;2022-10-20T07:09:17;16.43;;;12.37;;
11921;SDS011;6021;51.182;3.160;2022-10-20T07:11:49;19.57;;;12.83;;
11921;SDS011;6021;51.182;3.160;2022-10-20T07:14:19;18.17;;;16.03;;
11921;SDS011;6021;51.182;3.160;2022-10-20T07:16:47;18.23;;;15.23;;
11921;SDS011;6021;51.182;3.160;2022-10-20T07:19:15;19.33;;;13.00;;
11921;SDS011;6021;51.182;3.160;2022-10-20T07:21:44;17.20;;;12.83;;
11921;SDS011;6021;51.182;3.160;2022-10-20T07:24:12;14.47;;;11.90;;
11921;SDS011;6021;51.182;3.160;2022-10-20T07:26:42;17.00;;;11.93;;
11921;SDS011;6021;51.182;3.160;2022-10-20T07:29:11;16.87;;;12.13;;
11921;SDS011;6021;51.182;3.160;2022-10-20T07:36:53;17.40;;;13.57;;
11921;SDS011;6021;51.182;3.160;2022-10-20T07:41:59;20.50;;;14.60;;
11921;SDS011;6021;51.182;3.160;2022-10-20T07:44:27;22.33;;;14.57;;
11921;SDS011;6021;51.182;3.160;2022-10-20T07:46:55;17.53;;;14.07;;
11921;SDS011;6021;51.182;3.160;2022-10-20T07:49:24;17.20;;;13.17;;
11921;SDS011;6021;51.182;3.160;2022-10-20T08:04:52;20.30;;;15.13;;
11921;SDS011;6021;51.182;3.160;2022-10-20T08:07:20;21.37;;;15.03;;
11921;SDS011;6021;51.182;3.160;2022-10-20T08:09:48;22.20;;;15.13;;
11921;SDS011;6021;51.182;3.160;2022-10-20T08:14:55;22.90;;;16.50;;
11921;SDS011;6021;51.182;3.160;2022-10-20T08:27:54;24.57;;;16.90;;
11921;SDS011;6021;51.182;3.160;2022-10-20T08:30:22;27.80;;;17.80;;
11921;SDS011;6021;51.182;3.160;2022-10-20T08:38:06;23.83;;;17.37;;
11921;SDS011;6021;51.182;3.160;2022-10-20T08:51:22;21.80;;;16.03;;
11921;SDS011;6021;51.182;3.160;2022-10-20T08:56:29;19.97;;;14.73;;
11921;SDS011;6021;51.182;3.160;2022-10-20T09:01:35;22.83;;;15.77;;
11921;SDS011;6021;51.182;3.160;2022-10-20T09:06:42;34.97;;;18.23;;
11921;SDS011;6021;51.182;3.160;2022-10-20T09:09:13;24.60;;;17.27;;
11921;SDS011;6021;51.182;3.160;2022-10-20T09:11:44;24.57;;;17.90;;
11921;SDS011;6021;51.182;3.160;2022-10-20T09:19:27;27.33;;;17.50;;
11921;SDS011;6021;51.182;3.160;2022-10-20T09:21:58;26.60;;;17.00;;
11921;SDS011;6021;51.182;3.160;2022-10-20T09:24:27;30.63;;;18.47;;
11921;SDS011;6021;51.182;3.160;2022-10-20T11:08:39;24.43;;;18.67;;
11921;SDS011;6021;51.182;3.160;2022-10-20T11:25:35;19.57;;;15.93;;
11921;SDS011;6021;51.182;3.160;2022-10-20T11:30:59;17.37;;;14.50;;
11921;SDS011;6021;51.182;3.160;2022-10-20T11:33:31;18.63;;;14.97;;
11921;SDS011;6021;51.182;3.160;2022-10-20T11:36:02;18.90;;;14.20;;
11921;SDS011;6021;51.182;3.160;2022-10-20T11:38:45;16.20;;;14.43;;
11921;SDS011;6021;51.182;3.160;2022-10-20T11:41:23;19.30;;;16.07;;
11921;SDS011;6021;51.182;3.160;2022-10-20T11:44:00;19.30;;;14.73;;
11921;SDS011;6021;51.182;3.160;2022-10-20T11:46:37;17.70;;;15.33;;
11921;SDS011;6021;51.182;3.160;2022-10-20T11:49:10;18.23;;;15.73;;
11921;SDS011;6021;51.182;3.160;2022-10-20T11:51:42;20.13;;;15.93;;
11921;SDS011;6021;51.182;3.160;2022-10-20T11:54:22;17.73;;;14.97;;
11921;SDS011;6021;51.182;3.160;2022-10-20T11:57:10;16.23;;;14.40;;
11921;SDS011;6021;51.182;3.160;2022-10-20T12:19:31;19.23;;;14.17;;
11921;SDS011;6021;51.182;3.160;2022-10-20T12:22:04;16.77;;;13.07;;
11921;SDS011;6021;51.182;3.160;2022-10-20T12:24:38;14.03;;;12.07;;
11921;SDS011;6021;51.182;3.160;2022-10-20T12:27:14;14.57;;;10.70;;
11921;SDS011;6021;51.182;3.160;2022-10-20T12:29:47;14.10;;;9.83;;
11921;SDS011;6021;51.182;3.160;2022-10-20T12:37:42;10.17;;;8.20;;
11921;SDS011;6021;51.182;3.160;2022-10-20T12:40:28;12.17;;;8.83;;
11921;SDS011;6021;51.182;3.160;2022-10-20T12:42:54;8.87;;;7.97;;
11921;SDS011;6021;51.182;3.160;2022-10-20T12:45:28;9.30;;;8.00;;
11921;SDS011;6021;51.182;3.160;2022-10-20T12:48:03;10.93;;;8.37;;
11921;SDS011;6021;51.182;3.160;2022-10-20T12:50:40;9.87;;;7.50;;
11921;SDS011;6021;51.182;3.160;2022-10-20T12:53:24;11.33;;;7.63;;
11921;SDS011;6021;51.182;3.160;2022-10-20T12:56:08;10.43;;;7.03;;
11921;SDS011;6021;51.182;3.160;2022-10-20T13:01:30;8.87;;;7.20;;
11921;SDS011;6021;51.182;3.160;2022-10-20T13:04:14;8.37;;;6.57;;
11921;SDS011;6021;51.182;3.160;2022-10-20T13:06:38;9.17;;;6.40;;
11921;SDS011;6021;51.182;3.160;2022-10-20T13:09:15;7.03;;;5.50;;
11921;SDS011;6021;51.182;3.160;2022-10-20T13:12:21;9.07;;;6.27;;
11921;SDS011;6021;51.182;3.160;2022-10-20T13:14:30;8.53;;;6.20;;
11921;SDS011;6021;51.182;3.160;2022-10-20T13:19:52;8.27;;;6.47;;
11921;SDS011;6021;51.182;3.160;2022-10-20T13:25:13;8.77;;;6.03;;
11921;SDS011;6021;51.182;3.160;2022-10-20T13:27:43;8.23;;;5.30;;
11921;SDS011;6021;51.182;3.160;2022-10-20T13:30:18;10.33;;;6.23;;
11921;SDS011;6021;51.182;3.160;2022-10-20T13:32:50;7.50;;;5.20;;
11921;SDS011;6021;51.182;3.160;2022-10-20T13:35:24;8.60;;;5.70;;
11921;SDS011;6021;51.182;3.160;2022-10-20T13:37:59;9.10;;;5.77;;
11921;SDS011;6021;51.182;3.160;2022-10-20T13:43:41;6.93;;;5.60;;
11921;SDS011;6021;51.182;3.160;2022-10-20T13:51:32;7.43;;;4.57;;
11921;SDS011;6021;51.182;3.160;2022-10-20T13:54:02;7.37;;;4.80;;
11921;SDS011;6021;51.182;3.160;2022-10-20T13:56:34;6.30;;;4.40;;
11921;SDS011;6021;51.182;3.160;2022-10-20T13:59:05;9.73;;;5.00;;
11921;SDS011;6021;51.182;3.160;2022-10-20T14:01:35;6.87;;;4.63;;
11921;SDS011;6021;51.182;3.160;2022-10-20T14:04:18;7.97;;;4.83;;
11921;SDS011;6021;51.182;3.160;2022-10-20T14:06:35;6.73;;;4.33;;
11921;SDS011;6021;51.182;3.160;2022-10-20T14:09:09;5.83;;;4.10;;
11921;SDS011;6021;51.182;3.160;2022-10-20T14:11:38;6.53;;;4.23;;
11921;SDS011;6021;51.182;3.160;2022-10-20T14:14:10;6.83;;;4.47;;
11921;SDS011;6021;51.182;3.160;2022-10-20T14:16:52;6.70;;;4.23;;
11921;SDS011;6021;51.182;3.160;2022-10-20T14:19:18;6.30;;;4.33;;
11921;SDS011;6021;51.182;3.160;2022-10-20T14:21:49;8.50;;;4.27;;
11921;SDS011;6021;51.182;3.160;2022-10-20T14:24:22;6.77;;;4.10;;
11921;SDS011;6021;51.182;3.160;2022-10-20T14:26:53;5.13;;;3.90;;
11921;SDS011;6021;51.182;3.160;2022-10-20T14:29:23;5.37;;;3.80;;
11921;SDS011;6021;51.182;3.160;2022-10-20T14:31:54;6.07;;;3.90;;
11921;SDS011;6021;51.182;3.160;2022-10-20T14:34:24;5.60;;;3.83;;
11921;SDS011;6021;51.182;3.160;2022-10-20T14:36:54;6.90;;;3.63;;
11921;SDS011;6021;51.182;3.160;2022-10-20T14:41:59;5.80;;;3.40;;
11921;SDS011;6021;51.182;3.160;2022-10-20T14:44:29;3.97;;;3.20;;
11921;SDS011;6021;51.182;3.160;2022-10-20T14:46:58;6.97;;;3.30;;
11921;SDS011;6021;51.182;3.160;2022-10-20T14:49:31;6.30;;;3.40;;
11921;SDS011;6021;51.182;3.160;2022-10-20T14:52:03;5.20;;;3.03;;
11921;SDS011;6021;51.182;3.160;2022-10-20T14:54:34;4.07;;;2.80;;
11921;SDS011;6021;51.182;3.160;2022-10-20T15:02:30;5.23;;;2.90;;
11921;SDS011;6021;51.182;3.160;2022-10-20T15:08:06;4.33;;;2.33;;
11921;SDS011;6021;51.182;3.160;2022-10-20T15:10:37;6.40;;;2.50;;
11921;SDS011;6021;51.182;3.160;2022-10-20T15:13:16;3.53;;;2.17;;
11921;SDS011;6021;51.182;3.160;2022-10-20T15:15:49;3.60;;;2.30;;
11921;SDS011;6021;51.182;3.160;2022-10-20T15:18:18;3.00;;;1.80;;
11921;SDS011;6021;51.182;3.160;2022-10-20T15:20:49;4.23;;;1.80;;
11921;SDS011;6021;51.182;3.160;2022-10-20T15:23:20;3.03;;;1.63;;
11921;SDS011;6021;51.182;3.160;2022-10-20T15:28:28;1.83;;;1.60;;
11921;SDS011;6021;51.182;3.160;2022-10-20T15:30:59;4.10;;;1.73;;
11921;SDS011;6021;51.182;3.160;2022-10-20T15:33:28;2.30;;;1.40;;
11921;SDS011;6021;51.182;3.160;2022-10-20T15:35:57;2.33;;;1.40;;
11921;SDS011;6021;51.182;3.160;2022-10-20T15:38:27;2.00;;;1.40;;
11921;SDS011;6021;51.182;3.160;2022-10-20T15:40:55;3.53;;;1.50;;
11921;SDS011;6021;51.182;3.160;2022-10-20T15:43:27;3.47;;;1.50;;
11921;SDS011;6021;51.182;3.160;2022-10-20T15:45:55;3.40;;;1.60;;
11921;SDS011;6021;51.182;3.160;2022-10-20T15:48:23;4.53;;;1.50;;
11921;SDS011;6021;51.182;3.160;2022-10-20T15:50:52;3.00;;;1.60;;
11921;SDS011;6021;51.182;3.160;2022-10-20T15:53:21;2.90;;;1.70;;
11921;SDS011;6021;51.182;3.160;2022-10-20T15:55:50;2.80;;;1.70;;
11921;SDS011;6021;51.182;3.160;2022-10-20T15:58:18;3.33;;;1.70;;
11921;SDS011;6021;51.182;3.160;2022-10-20T16:00:46;4.37;;;1.63;;
11921;SDS011;6021;51.182;3.160;2022-10-20T16:03:15;3.60;;;1.70;;
11921;SDS011;6021;51.182;3.160;2022-10-20T16:05:50;3.23;;;1.60;;
11921;SDS011;6021;51.182;3.160;2022-10-20T16:08:14;3.33;;;1.77;;
11921;SDS011;6021;51.182;3.160;2022-10-20T16:10:42;3.70;;;1.80;;
11921;SDS011;6021;51.182;3.160;2022-10-20T16:13:10;2.03;;;1.70;;
11921;SDS011;6021;51.182;3.160;2022-10-20T16:15:42;3.07;;;1.60;;
11921;SDS011;6021;51.182;3.160;2022-10-20T16:18:10;3.10;;;1.87;;
11921;SDS011;6021;51.182;3.160;2022-10-20T16:20:38;2.67;;;1.70;;
11921;SDS011;6021;51.182;3.160;2022-10-20T16:23:07;1.83;;;1.70;;
11921;SDS011;6021;51.182;3.160;2022-10-20T16:25:37;2.97;;;1.90;;
11921;SDS011;6021;51.182;3.160;2022-10-20T16:28:07;3.17;;;1.83;;
11921;SDS011;6021;51.182;3.160;2022-10-20T16:30:36;3.87;;;2.40;;
11921;SDS011;6021;51.182;3.160;2022-10-20T16:33:04;4.27;;;2.20;;
11921;SDS011;6021;51.182;3.160;2022-10-20T16:35:33;5.20;;;3.70;;
11921;SDS011;6021;51.182;3.160;2022-10-20T16:38:03;6.47;;;2.90;;
11921;SDS011;6021;51.182;3.160;2022-10-20T16:40:31;6.20;;;4.83;;
11921;SDS011;6021;51.182;3.160;2022-10-20T16:42:59;8.27;;;4.17;;
11921;SDS011;6021;51.182;3.160;2022-10-20T16:45:28;5.40;;;3.80;;
11921;SDS011;6021;51.182;3.160;2022-10-20T16:47:56;5.57;;;2.90;;
11921;SDS011;6021;51.182;3.160;2022-10-20T16:50:24;3.70;;;2.20;;
11921;SDS011;6021;51.182;3.160;2022-10-20T16:52:53;3.60;;;2.10;;
11921;SDS011;6021;51.182;3.160;2022-10-20T16:55:21;3.00;;;2.30;;
11921;SDS011;6021;51.182;3.160;2022-10-20T16:57:49;3.20;;;2.20;;
11921;SDS011;6021;51.182;3.160;2022-10-20T17:00:19;4.30;;;2.10;;
11921;SDS011;6021;51.182;3.160;2022-10-20T17:02:47;5.73;;;2.20;;
11921;SDS011;6021;51.182;3.160;2022-10-20T17:05:17;4.17;;;1.80;;
11921;SDS011;6021;51.182;3.160;2022-10-20T17:07:46;2.97;;;2.00;;
11921;SDS011;6021;51.182;3.160;2022-10-20T17:10:15;2.87;;;1.73;;
11921;SDS011;6021;51.182;3.160;2022-10-20T17:12:45;2.10;;;1.70;;
11921;SDS011;6021;51.182;3.160;2022-10-20T17:15:13;4.37;;;1.90;;
11921;SDS011;6021;51.182;3.160;2022-10-20T17:17:42;4.47;;;2.10;;
11921;SDS011;6021;51.182;3.160;2022-10-20T17:20:10;4.80;;;2.00;;
11921;SDS011;6021;51.182;3.160;2022-10-20T17:22:38;3.27;;;1.90;;
11921;SDS011;6021;51.182;3.160;2022-10-20T17:25:07;4.93;;;2.00;;
11921;SDS011;6021;51.182;3.160;2022-10-20T17:27:36;5.00;;;2.13;;
11921;SDS011;6021;51.182;3.160;2022-10-20T17:30:04;4.33;;;2.10;;
11921;SDS011;6021;51.182;3.160;2022-10-20T17:32:33;3.77;;;2.07;;
11921;SDS011;6021;51.182;3.160;2022-10-20T17:35:03;4.17;;;2.30;;
11921;SDS011;6021;51.182;3.160;2022-10-20T17:37:31;2.20;;;1.90;;
11921;SDS011;6021;51.182;3.160;2022-10-20T17:39:59;2.83;;;2.07;;
11921;SDS011;6021;51.182;3.160;2022-10-20T17:42:28;4.77;;;2.30;;
11921;SDS011;6021;51.182;3.160;2022-10-20T17:44:58;2.43;;;1.80;;
11921;SDS011;6021;51.182;3.160;2022-10-20T17:47:26;5.03;;;2.00;;
11921;SDS011;6021;51.182;3.160;2022-10-20T17:49:54;6.57;;;2.30;;
11921;SDS011;6021;51.182;3.160;2022-10-20T17:52:22;2.87;;;1.93;;
11921;SDS011;6021;51.182;3.160;2022-10-20T17:54:51;6.50;;;2.00;;
11921;SDS011;6021;51.182;3.160;2022-10-20T17:57:19;7.90;;;2.20;;
11921;SDS011;6021;51.182;3.160;2022-10-20T17:59:48;4.37;;;2.13;;
11921;SDS011;6021;51.182;3.160;2022-10-20T18:02:16;6.23;;;2.13;;
11921;SDS011;6021;51.182;3.160;2022-10-20T18:04:45;7.10;;;2.80;;
11921;SDS011;6021;51.182;3.160;2022-10-20T18:07:14;9.23;;;2.40;;
11921;SDS011;6021;51.182;3.160;2022-10-20T18:09:42;7.23;;;2.30;;
11921;SDS011;6021;51.182;3.160;2022-10-20T18:12:10;6.43;;;2.70;;
11921;SDS011;6021;51.182;3.160;2022-10-20T18:14:39;9.10;;;2.77;;
11921;SDS011;6021;51.182;3.160;2022-10-20T18:17:08;8.00;;;3.20;;
11921;SDS011;6021;51.182;3.160;2022-10-20T18:19:36;4.37;;;2.80;;
11921;SDS011;6021;51.182;3.160;2022-10-20T18:22:06;5.33;;;2.63;;
11921;SDS011;6021;51.182;3.160;2022-10-20T18:24:34;5.40;;;2.80;;
11921;SDS011;6021;51.182;3.160;2022-10-20T18:27:03;7.47;;;3.30;;
11921;SDS011;6021;51.182;3.160;2022-10-20T18:29:31;5.43;;;3.77;;
11921;SDS011;6021;51.182;3.160;2022-10-20T18:32:00;3.97;;;3.00;;
11921;SDS011;6021;51.182;3.160;2022-10-20T18:34:28;6.73;;;3.13;;
11921;SDS011;6021;51.182;3.160;2022-10-20T18:36:56;4.13;;;3.23;;
11921;SDS011;6021;51.182;3.160;2022-10-20T18:39:26;8.90;;;4.10;;
11921;SDS011;6021;51.182;3.160;2022-10-20T18:41:57;4.33;;;3.80;;
11921;SDS011;6021;51.182;3.160;2022-10-20T18:44:25;7.90;;;6.03;;
11921;SDS011;6021;51.182;3.160;2022-10-20T18:46:54;12.40;;;4.97;;
11921;SDS011;6021;51.182;3.160;2022-10-20T18:49:22;5.63;;;3.57;;
11921;SDS011;6021;51.182;3.160;2022-10-20T18:51:51;4.40;;;3.40;;
11921;SDS011;6021;51.182;3.160;2022-10-20T18:54:19;3.97;;;3.57;;
11921;SDS011;6021;51.182;3.160;2022-10-20T18:56:50;4.07;;;3.67;;
11921;SDS011;6021;51.182;3.160;2022-10-20T18:59:18;6.23;;;4.80;;
11921;SDS011;6021;51.182;3.160;2022-10-20T19:01:48;4.90;;;3.60;;
11921;SDS011;6021;51.182;3.160;2022-10-20T19:04:16;5.63;;;3.83;;
11921;SDS011;6021;51.182;3.160;2022-10-20T19:06:45;4.17;;;3.60;;
11921;SDS011;6021;51.182;3.160;2022-10-20T19:09:15;5.60;;;5.10;;
11921;SDS011;6021;51.182;3.160;2022-10-20T19:11:46;8.47;;;5.43;;
11921;SDS011;6021;51.182;3.160;2022-10-20T19:14:15;6.37;;;5.17;;
11921;SDS011;6021;51.182;3.160;2022-10-20T19:16:44;10.70;;;6.23;;
11921;SDS011;6021;51.182;3.160;2022-10-20T19:19:14;12.57;;;5.40;;
11921;SDS011;6021;51.182;3.160;2022-10-20T19:21:43;9.13;;;5.63;;
11921;SDS011;6021;51.182;3.160;2022-10-20T19:24:15;8.73;;;6.93;;
11921;SDS011;6021;51.182;3.160;2022-10-20T19:26:46;8.50;;;6.67;;
11921;SDS011;6021;51.182;3.160;2022-10-20T19:29:20;9.27;;;6.07;;
11921;SDS011;6021;51.182;3.160;2022-10-20T19:31:50;8.03;;;6.47;;
11921;SDS011;6021;51.182;3.160;2022-10-20T19:34:27;12.53;;;6.40;;
11921;SDS011;6021;51.182;3.160;2022-10-20T19:36:55;10.70;;;6.37;;
11921;SDS011;6021;51.182;3.160;2022-10-20T19:39:25;9.97;;;6.90;;
11921;SDS011;6021;51.182;3.160;2022-10-20T19:41:56;13.30;;;6.43;;
11921;SDS011;6021;51.182;3.160;2022-10-20T19:44:26;8.03;;;7.20;;
11921;SDS011;6021;51.182;3.160;2022-10-20T19:46:55;8.20;;;7.40;;
11921;SDS011;6021;51.182;3.160;2022-10-20T19:49:23;7.40;;;6.70;;
11921;SDS011;6021;51.182;3.160;2022-10-20T19:51:52;8.43;;;6.93;;
11921;SDS011;6021;51.182;3.160;2022-10-20T19:54:21;10.33;;;7.13;;
11921;SDS011;6021;51.182;3.160;2022-10-20T19:56:49;12.10;;;7.57;;
11921;SDS011;6021;51.182;3.160;2022-10-20T19:59:17;9.43;;;6.80;;
11921;SDS011;6021;51.182;3.160;2022-10-20T20:01:46;8.90;;;7.30;;